Time;durP1;ratioP1;P1;durP2;ratioP2;P2;SDS_P1;SDS_P2;PMS_P1;PMS_P2;Temp;Humidity;BMP_temperature;BMP_pressure;BME280_temperature;BME280_humidity;BME280_pressure;Samples;Min_cycle;Max_cycle;Signal;HPM_P1;HPM_P2
2024/03/09 00:00:31;;;;;;;24.00;11.95;;;6.80;73.60;;;;;;5090759;28;20036;-94
2024/03/09 00:02:59;;;;;;;22.55;11.35;;;6.80;73.40;;;;;;5068277;28;20025;-94
2024/03/09 00:05:26;;;;;;;23.73;12.65;;;6.80;73.70;;;;;;5066462;28;20052;-94
2024/03/09 00:07:54;;;;;;;21.17;11.75;;;6.80;73.50;;;;;;5059362;28;20097;-93
2024/03/09 00:10:20;;;;;;;24.38;12.85;;;6.80;73.70;;;;;;5064958;28;20032;-94
2024/03/09 00:12:49;;;;;;;25.55;10.82;;;6.90;73.20;;;;;;5052306;28;20112;-94
2024/03/09 00:15:16;;;;;;;21.55;10.57;;;6.80;73.70;;;;;;5079428;28;20055;-93
2024/03/09 00:17:42;;;;;;;22.80;12.48;;;6.70;76.30;;;;;;5079457;28;20024;-93
2024/03/09 00:20:12;;;;;;;24.85;11.90;;;6.60;77.90;;;;;;5081593;28;20028;-93
2024/03/09 00:22:39;;;;;;;23.05;11.02;;;6.50;77.10;;;;;;5061771;28;20123;-94
2024/03/09 00:25:05;;;;;;;20.33;11.98;;;6.50;76.80;;;;;;5064775;28;20057;-94
2024/03/09 00:27:31;;;;;;;21.80;10.95;;;6.50;78.10;;;;;;5075007;28;20028;-94
2024/03/09 00:29:57;;;;;;;23.50;12.32;;;6.50;78.70;;;;;;5092404;28;20107;-93
2024/03/09 00:32:25;;;;;;;20.92;11.32;;;6.60;79.60;;;;;;5062850;28;20101;-93
2024/03/09 00:34:53;;;;;;;16.67;10.73;;;6.60;79.20;;;;;;5059536;28;20112;-93
2024/03/09 00:37:20;;;;;;;16.77;10.52;;;6.60;80.50;;;;;;5079040;28;20483;-94
2024/03/09 00:39:45;;;;;;;21.10;11.85;;;6.50;80.20;;;;;;5074195;28;20052;-94
2024/03/09 00:42:14;;;;;;;20.90;12.48;;;6.60;80.50;;;;;;5062454;28;20418;-93
2024/03/09 00:44:43;;;;;;;17.95;10.00;;;6.50;81.00;;;;;;5069055;28;20115;-94
2024/03/09 00:47:09;;;;;;;21.85;10.60;;;6.50;80.60;;;;;;5093637;28;20040;-93
2024/03/09 00:49:34;;;;;;;21.90;11.63;;;6.60;80.80;;;;;;5063697;28;20037;-93
2024/03/09 00:52:06;;;;;;;24.25;12.10;;;6.60;81.50;;;;;;5089577;28;20024;-94
2024/03/09 00:54:32;;;;;;;22.00;12.27;;;6.60;82.00;;;;;;5083856;28;20063;-94
2024/03/09 00:56:58;;;;;;;23.50;10.45;;;6.60;81.80;;;;;;5079996;28;20047;-93
2024/03/09 00:59:24;;;;;;;20.05;11.07;;;6.60;81.50;;;;;;5062939;28;20024;-95
2024/03/09 01:01:50;;;;;;;23.67;11.27;;;6.50;82.90;;;;;;5073873;28;20411;-92
2024/03/09 01:04:16;;;;;;;19.23;9.82;;;6.50;82.60;;;;;;5056173;28;20484;-92
2024/03/09 01:06:42;;;;;;;22.52;10.95;;;6.50;81.50;;;;;;5080352;28;20029;-94
2024/03/09 01:09:09;;;;;;;19.73;10.05;;;6.40;81.40;;;;;;5073095;28;20048;-93
2024/03/09 01:11:35;;;;;;;22.70;11.25;;;6.40;80.90;;;;;;5057304;28;20088;-93
2024/03/09 01:14:01;;;;;;;22.80;11.15;;;6.50;80.40;;;;;;5076863;28;20059;-94
2024/03/09 01:16:29;;;;;;;16.45;9.88;;;6.50;79.90;;;;;;5061697;28;20084;-95
2024/03/09 01:18:55;;;;;;;20.08;11.43;;;6.50;79.20;;;;;;5071043;28;20483;-95
2024/03/09 01:21:21;;;;;;;22.10;12.00;;;6.50;78.30;;;;;;5059382;28;20540;-94
2024/03/09 01:23:47;;;;;;;22.92;13.05;;;6.50;78.90;;;;;;5078572;28;20020;-94
2024/03/09 01:26:14;;;;;;;23.92;12.82;;;6.60;78.80;;;;;;5079293;28;20121;-93
2024/03/09 01:28:41;;;;;;;21.00;12.13;;;6.60;79.60;;;;;;5072663;28;20024;-93
2024/03/09 01:31:10;;;;;;;26.77;12.70;;;6.60;79.60;;;;;;5071863;28;20013;-91
2024/03/09 01:33:36;;;;;;;24.77;12.57;;;6.50;80.70;;;;;;5080201;28;20013;-94
2024/03/09 01:36:02;;;;;;;27.05;12.60;;;6.50;81.70;;;;;;5082489;28;20020;-94
2024/03/09 01:38:28;;;;;;;21.58;11.85;;;6.40;81.10;;;;;;5070942;28;20081;-92
2024/03/09 01:40:54;;;;;;;25.15;12.40;;;6.40;81.20;;;;;;5061835;28;20088;-94
2024/03/09 01:43:20;;;;;;;18.58;11.02;;;6.40;83.20;;;;;;5061508;28;20040;-95
2024/03/09 01:45:49;;;;;;;24.80;11.75;;;6.30;84.90;;;;;;5087665;28;20028;-92
2024/03/09 01:48:20;;;;;;;20.20;11.43;;;6.20;84.80;;;;;;5047990;28;20032;-93
2024/03/09 01:50:46;;;;;;;25.27;11.40;;;6.30;85.30;;;;;;5080514;28;20027;-93
2024/03/09 01:53:13;;;;;;;22.88;11.15;;;6.20;85.00;;;;;;5075637;28;20012;-94
2024/03/09 01:55:41;;;;;;;21.65;10.50;;;6.20;84.50;;;;;;5092064;28;20020;-93
2024/03/09 01:58:08;;;;;;;22.80;11.38;;;6.20;84.10;;;;;;5061765;28;20044;-94
2024/03/09 02:00:37;;;;;;;22.67;11.13;;;6.10;84.30;;;;;;5074364;28;20080;-92
2024/03/09 02:03:12;;;;;;;24.02;11.48;;;6.10;83.80;;;;;;5070818;28;20025;-93
2024/03/09 02:05:39;;;;;;;20.52;10.88;;;6.10;83.60;;;;;;5084141;28;20039;-93
2024/03/09 02:08:06;;;;;;;18.75;10.90;;;6.20;83.20;;;;;;5078455;28;20115;-93
2024/03/09 02:10:33;;;;;;;20.65;11.20;;;6.10;84.90;;;;;;5083981;28;20486;-93
2024/03/09 02:12:58;;;;;;;22.65;11.38;;;6.10;85.60;;;;;;5080248;28;20021;-92
2024/03/09 02:15:29;;;;;;;19.48;10.98;;;6.10;84.50;;;;;;5074989;28;20104;-94
2024/03/09 02:17:59;;;;;;;20.95;10.63;;;6.10;84.50;;;;;;5079413;28;20020;-93
2024/03/09 02:20:30;;;;;;;20.52;11.05;;;6.00;85.00;;;;;;5073486;28;20402;-94
2024/03/09 02:22:57;;;;;;;26.05;14.30;;;6.10;85.00;;;;;;5073202;28;20135;-92
2024/03/09 02:25:24;;;;;;;18.90;11.00;;;6.10;84.80;;;;;;5072672;28;20052;-94
2024/03/09 02:27:52;;;;;;;21.45;11.38;;;6.10;85.10;;;;;;5065180;28;20067;-94
2024/03/09 02:30:19;;;;;;;21.13;10.40;;;6.00;85.80;;;;;;5079239;28;20039;-94
2024/03/09 02:32:45;;;;;;;24.65;11.18;;;6.00;86.20;;;;;;5081893;28;20382;-93
2024/03/09 02:35:11;;;;;;;23.33;11.95;;;6.00;86.00;;;;;;5067044;28;20418;-93
2024/03/09 02:37:37;;;;;;;25.02;13.35;;;6.00;86.30;;;;;;5084292;28;20021;-93
2024/03/09 02:40:04;;;;;;;26.42;12.63;;;6.10;86.70;;;;;;5083453;28;20032;-94
2024/03/09 02:42:34;;;;;;;26.90;13.18;;;6.10;86.00;;;;;;5082971;28;20502;-94
2024/03/09 02:44:59;;;;;;;21.70;13.32;;;6.10;85.90;;;;;;5085526;28;20024;-93
2024/03/09 02:47:26;;;;;;;21.17;11.70;;;6.10;87.20;;;;;;5087695;28;20039;-93
2024/03/09 02:49:54;;;;;;;20.17;11.35;;;6.10;88.40;;;;;;5082308;28;20409;-94
2024/03/09 02:52:20;;;;;;;20.88;12.15;;;6.10;89.30;;;;;;5088027;28;20016;-93
2024/03/09 02:54:46;;;;;;;19.60;10.63;;;6.10;89.40;;;;;;5085629;28;20570;-93
2024/03/09 02:57:16;;;;;;;23.38;11.05;;;6.00;90.40;;;;;;5060463;28;20052;-95
2024/03/09 02:59:42;;;;;;;21.27;11.43;;;6.00;91.30;;;;;;5083216;28;20032;-93
2024/03/09 03:03:45;;;;;;;18.13;10.35;;;5.80;92.20;;;;;;5086533;28;20530;-94
2024/03/09 03:04:53;;;;;;;22.13;11.88;;;5.70;92.10;;;;;;5089748;28;20035;-94
2024/03/09 03:07:19;;;;;;;24.30;11.73;;;5.70;91.60;;;;;;5064563;28;20028;-93
2024/03/09 03:09:50;;;;;;;22.00;12.77;;;5.60;91.20;;;;;;5082192;28;20445;-93
2024/03/09 03:12:16;;;;;;;24.92;11.70;;;5.70;90.50;;;;;;5087479;28;20020;-93
2024/03/09 03:14:43;;;;;;;22.25;11.23;;;5.70;90.30;;;;;;5081875;28;20036;-93
2024/03/09 03:17:12;;;;;;;24.15;12.57;;;5.60;89.30;;;;;;5075035;28;20022;-94
2024/03/09 03:19:38;;;;;;;25.58;11.73;;;5.70;88.40;;;;;;5097644;28;20028;-94
2024/03/09 03:22:05;;;;;;;22.35;11.82;;;5.70;88.90;;;;;;5082858;28;20028;-94
2024/03/09 03:24:31;;;;;;;23.80;11.70;;;5.70;88.20;;;;;;5075665;28;20499;-92
2024/03/09 03:26:57;;;;;;;25.40;13.48;;;5.80;88.10;;;;;;5082631;28;20552;-94
2024/03/09 03:29:27;;;;;;;24.95;14.20;;;5.80;86.70;;;;;;5076850;28;20035;-92
2024/03/09 03:31:55;;;;;;;21.67;11.98;;;5.80;86.30;;;;;;5086632;28;20024;-93
2024/03/09 03:34:21;;;;;;;27.38;12.82;;;5.80;85.80;;;;;;5064071;28;20033;-91
2024/03/09 03:36:48;;;;;;;26.27;12.07;;;5.80;85.90;;;;;;5082927;28;20079;-93
2024/03/09 03:39:13;;;;;;;25.15;12.70;;;5.80;84.80;;;;;;5085452;28;20028;-94
2024/03/09 03:41:39;;;;;;;26.30;13.05;;;5.80;84.80;;;;;;5086513;28;20024;-94
2024/03/09 03:44:05;;;;;;;23.85;12.90;;;5.80;83.90;;;;;;5065000;28;20086;-94
2024/03/09 03:46:31;;;;;;;26.38;11.82;;;5.90;83.80;;;;;;5080736;28;20029;-94
2024/03/09 03:48:57;;;;;;;24.63;12.65;;;5.90;83.30;;;;;;5082403;28;20028;-94
2024/03/09 03:51:22;;;;;;;24.50;11.80;;;5.90;83.10;;;;;;5084310;28;20087;-94
2024/03/09 03:53:48;;;;;;;26.25;12.35;;;6.00;82.50;;;;;;5068606;28;20031;-93
2024/03/09 03:56:14;;;;;;;23.48;11.48;;;5.90;81.10;;;;;;5073973;28;20052;-93
2024/03/09 03:58:47;;;;;;;22.73;14.10;;;6.00;80.50;;;;;;5083229;28;20486;-93
2024/03/09 04:01:13;;;;;;;24.77;11.98;;;6.00;80.60;;;;;;5065186;28;20040;-93
2024/03/09 04:03:38;;;;;;;21.05;11.88;;;6.00;81.30;;;;;;5082770;28;20028;-94
2024/03/09 04:06:07;;;;;;;22.02;12.63;;;6.00;82.10;;;;;;5057644;28;20436;-93
2024/03/09 04:08:33;;;;;;;20.58;9.75;;;6.00;81.20;;;;;;5079299;28;20032;-93
2024/03/09 04:11:03;;;;;;;22.45;10.48;;;5.90;80.70;;;;;;5065823;28;20029;-93
2024/03/09 04:13:30;;;;;;;19.98;10.70;;;5.90;80.70;;;;;;5095059;28;20039;-94
2024/03/09 04:15:56;;;;;;;21.58;11.18;;;5.90;80.90;;;;;;5097425;28;20085;-93
2024/03/09 04:18:22;;;;;;;22.85;10.75;;;5.80;81.50;;;;;;5098263;28;20037;-94
2024/03/09 04:20:47;;;;;;;21.23;10.95;;;5.80;81.50;;;;;;5099098;28;20016;-94
2024/03/09 04:23:16;;;;;;;21.25;10.00;;;5.70;81.70;;;;;;5098770;28;20189;-95
2024/03/09 04:25:52;;;;;;;21.00;11.25;;;5.70;81.80;;;;;;5090222;28;20023;-93
2024/03/09 04:28:21;;;;;;;19.10;9.80;;;5.60;81.60;;;;;;5098825;28;20032;-94
2024/03/09 04:30:51;;;;;;;24.10;11.38;;;5.60;81.70;;;;;;5098857;28;20029;-94
2024/03/09 04:33:18;;;;;;;18.10;10.48;;;5.60;81.70;;;;;;5096822;28;20055;-94
2024/03/09 04:35:47;;;;;;;19.85;9.93;;;5.60;82.30;;;;;;5094789;28;20025;-94
2024/03/09 04:38:13;;;;;;;20.90;10.82;;;5.60;82.70;;;;;;5086707;28;20059;-93
2024/03/09 04:40:43;;;;;;;23.45;10.73;;;5.50;82.70;;;;;;5064523;28;20031;-94
2024/03/09 04:43:09;;;;;;;19.90;11.00;;;5.50;82.90;;;;;;5091549;28;20031;-95
2024/03/09 04:45:35;;;;;;;22.08;11.18;;;5.60;82.50;;;;;;5080107;28;20043;-93
2024/03/09 04:48:03;;;;;;;23.98;10.75;;;5.60;82.30;;;;;;5057389;28;20029;-94
2024/03/09 04:50:30;;;;;;;22.20;11.80;;;5.50;82.80;;;;;;5092912;28;20016;-93
2024/03/09 04:52:56;;;;;;;20.23;9.35;;;5.60;82.70;;;;;;5070023;28;20017;-93
2024/03/09 04:55:27;;;;;;;17.15;9.43;;;5.60;82.50;;;;;;5064051;28;20025;-93
2024/03/09 04:57:53;;;;;;;22.02;9.40;;;5.60;82.40;;;;;;5081683;28;20021;-94
2024/03/09 05:00:19;;;;;;;19.42;9.75;;;5.60;82.30;;;;;;5092003;28;20020;-93
2024/03/09 05:02:48;;;;;;;21.23;10.00;;;5.60;82.00;;;;;;5065447;28;20063;-94
2024/03/09 05:05:18;;;;;;;19.88;9.55;;;5.50;82.50;;;;;;5080884;28;20051;-93
2024/03/09 05:07:48;;;;;;;17.83;10.02;;;5.50;82.80;;;;;;5082213;28;20024;-93
2024/03/09 05:10:18;;;;;;;21.50;11.75;;;5.50;82.70;;;;;;5061844;28;20028;-93
2024/03/09 05:12:54;;;;;;;19.35;10.90;;;5.50;82.60;;;;;;5062470;28;20023;-94
2024/03/09 05:15:24;;;;;;;20.23;11.00;;;5.50;82.60;;;;;;5080960;28;20072;-94
2024/03/09 05:17:56;;;;;;;19.95;10.57;;;5.50;82.90;;;;;;5073983;28;20111;-92
2024/03/09 05:20:23;;;;;;;22.83;11.23;;;5.50;82.90;;;;;;5077368;28;20103;-93
2024/03/09 05:22:52;;;;;;;22.33;11.07;;;5.40;83.10;;;;;;5064029;28;20084;-93
2024/03/09 05:25:18;;;;;;;21.38;10.05;;;5.40;83.50;;;;;;5067576;28;20027;-94
2024/03/09 05:27:45;;;;;;;20.48;10.35;;;5.40;83.80;;;;;;5090877;28;20024;-93
2024/03/09 05:30:16;;;;;;;19.52;12.45;;;5.40;83.30;;;;;;5080232;28;20406;-93
2024/03/09 05:32:44;;;;;;;25.35;12.45;;;5.30;83.30;;;;;;5070807;28;20020;-94
2024/03/09 05:35:14;;;;;;;22.30;10.57;;;5.30;83.80;;;;;;5087610;28;20017;-92
2024/03/09 05:37:40;;;;;;;21.08;10.43;;;5.30;84.30;;;;;;5072081;28;20024;-93
2024/03/09 05:40:09;;;;;;;20.23;13.10;;;5.20;84.50;;;;;;5081022;28;20127;-94
2024/03/09 05:42:36;;;;;;;23.23;11.38;;;5.30;84.60;;;;;;5074082;28;20467;-93
2024/03/09 05:45:03;;;;;;;24.42;10.25;;;5.20;84.30;;;;;;5075930;28;20024;-93
2024/03/09 05:47:29;;;;;;;24.98;13.25;;;5.20;84.10;;;;;;5080795;28;20491;-93
2024/03/09 05:49:55;;;;;;;19.65;10.23;;;5.10;84.50;;;;;;5079443;28;20050;-93
2024/03/09 05:52:20;;;;;;;28.90;11.75;;;5.10;84.80;;;;;;5086375;28;20020;-93
2024/03/09 05:54:48;;;;;;;23.60;11.65;;;5.00;84.90;;;;;;5080143;28;20573;-94
2024/03/09 05:57:15;;;;;;;25.23;12.13;;;5.00;85.10;;;;;;5071590;28;20025;-92
2024/03/09 05:59:41;;;;;;;23.10;11.50;;;5.00;85.10;;;;;;5065035;28;20028;-92
2024/03/09 06:02:07;;;;;;;23.17;11.85;;;5.00;85.00;;;;;;5064413;28;20032;-94
2024/03/09 06:04:34;;;;;;;25.75;11.45;;;5.00;85.10;;;;;;5079195;28;20036;-93
2024/03/09 06:06:59;;;;;;;21.27;11.55;;;5.00;85.30;;;;;;5078382;28;20036;-93
2024/03/09 06:09:25;;;;;;;24.90;12.30;;;5.00;85.50;;;;;;5069792;28;20479;-93
2024/03/09 06:11:51;;;;;;;22.95;12.23;;;5.10;85.30;;;;;;5078898;28;20106;-93
2024/03/09 06:14:20;;;;;;;22.45;10.95;;;5.00;85.30;;;;;;5061047;28;20088;-93
2024/03/09 06:16:46;;;;;;;22.17;12.60;;;4.90;85.50;;;;;;5074395;28;20044;-95
2024/03/09 06:19:13;;;;;;;22.90;12.52;;;5.00;85.50;;;;;;5077946;28;20021;-93
2024/03/09 06:21:39;;;;;;;23.80;11.70;;;4.90;86.00;;;;;;5045322;28;20024;-93
2024/03/09 06:24:05;;;;;;;25.08;11.20;;;4.90;86.10;;;;;;5063972;28;20024;-92
2024/03/09 06:26:31;;;;;;;22.63;11.40;;;4.90;85.90;;;;;;5076837;28;20024;-93
2024/03/09 06:28:56;;;;;;;20.52;10.82;;;4.80;86.40;;;;;;5073112;28;20025;-94
2024/03/09 06:31:25;;;;;;;23.65;11.90;;;4.80;86.50;;;;;;5059261;28;20055;-94
2024/03/09 06:33:51;;;;;;;22.25;11.15;;;4.80;86.60;;;;;;5075540;28;20021;-94
2024/03/09 06:36:18;;;;;;;27.85;19.15;;;4.80;86.60;;;;;;5076454;28;20461;-93
2024/03/09 06:38:44;;;;;;;23.75;13.27;;;4.80;87.00;;;;;;5062809;28;20021;-93
2024/03/09 06:41:10;;;;;;;23.92;12.35;;;4.80;87.20;;;;;;5070288;28;20032;-93
2024/03/09 06:43:36;;;;;;;23.35;13.05;;;4.80;86.90;;;;;;5084001;28;20045;-92
2024/03/09 06:46:03;;;;;;;24.70;14.90;;;4.80;87.30;;;;;;5075206;28;20021;-89
2024/03/09 06:48:29;;;;;;;25.75;14.15;;;4.80;87.40;;;;;;5083938;28;20040;-92
2024/03/09 06:50:55;;;;;;;30.10;15.27;;;4.80;87.70;;;;;;5049910;28;20529;-91
2024/03/09 06:53:25;;;;;;;25.08;15.05;;;4.90;87.90;;;;;;5083184;28;20017;-92
2024/03/09 06:55:51;;;;;;;25.35;13.77;;;4.90;87.60;;;;;;5072060;28;20618;-92
2024/03/09 06:58:17;;;;;;;28.67;14.00;;;4.90;87.30;;;;;;5060368;28;20687;-91
2024/03/09 07:00:43;;;;;;;24.02;13.27;;;4.90;88.10;;;;;;5068979;28;20028;-92
2024/03/09 07:03:09;;;;;;;23.85;12.27;;;4.90;87.50;;;;;;5077109;28;20040;-92
2024/03/09 07:05:35;;;;;;;25.17;13.15;;;4.90;87.10;;;;;;5068682;28;20025;-94
2024/03/09 07:08:01;;;;;;;25.05;13.90;;;4.90;87.00;;;;;;5082330;28;20469;-93
2024/03/09 07:10:28;;;;;;;27.27;13.77;;;4.90;87.40;;;;;;5078659;28;20020;-91
2024/03/09 07:12:54;;;;;;;23.05;11.90;;;4.90;87.70;;;;;;5078914;28;20048;-91
2024/03/09 07:15:22;;;;;;;29.13;15.13;;;4.90;87.70;;;;;;5072735;28;20025;-93
2024/03/09 07:17:49;;;;;;;28.95;18.77;;;4.90;87.50;;;;;;5072399;28;20021;-91
2024/03/09 07:20:18;;;;;;;26.80;13.88;;;4.90;87.70;;;;;;5072956;28;20029;-93
2024/03/09 07:22:51;;;;;;;28.23;12.68;;;5.00;87.50;;;;;;5091047;28;20024;-92
2024/03/09 07:25:25;;;;;;;27.10;13.77;;;5.00;87.00;;;;;;5053083;28;20029;-93
2024/03/09 07:27:51;;;;;;;;;;;5.00;87.00;;;;;;5078465;28;20024;-92
2024/03/09 07:30:18;;;;;;;27.00;14.00;;;5.00;87.00;;;;;;5066723;28;19908;-92
2024/03/09 07:32:53;;;;;;;43.10;26.90;;;5.00;87.30;;;;;;5067180;28;20199;-93
2024/03/09 07:35:20;;;;;;;29.08;14.35;;;5.00;87.60;;;;;;5068171;28;20025;-92
2024/03/09 07:37:47;;;;;;;27.33;14.77;;;5.10;87.50;;;;;;5084089;28;20080;-93
2024/03/09 07:40:15;;;;;;;26.15;13.77;;;5.20;86.70;;;;;;5064236;28;20020;-92
2024/03/09 07:42:41;;;;;;;28.17;13.65;;;5.20;86.50;;;;;;5065046;28;20028;-93
2024/03/09 07:45:13;;;;;;;24.17;11.88;;;5.30;86.40;;;;;;5065095;28;20028;-92
2024/03/09 07:47:41;;;;;;;25.08;11.05;;;5.40;85.70;;;;;;5089361;28;20109;-94
2024/03/09 07:50:14;;;;;;;24.25;13.73;;;5.50;85.70;;;;;;5072875;28;20060;-93
2024/03/09 07:52:47;;;;;;;30.48;14.88;;;5.60;84.70;;;;;;5078212;28;20039;-92
2024/03/09 07:55:16;;;;;;;24.73;13.73;;;5.60;84.20;;;;;;5082809;28;20100;-92
2024/03/09 07:57:43;;;;;;;22.92;11.15;;;5.70;83.90;;;;;;5072914;28;20394;-93
2024/03/09 08:00:17;;;;;;;28.77;17.77;;;5.80;83.30;;;;;;5062266;28;20465;-93
2024/03/09 08:02:46;;;;;;;27.02;12.82;;;5.90;83.40;;;;;;5065469;28;20070;-91
2024/03/09 08:05:14;;;;;;;24.13;11.57;;;6.00;82.90;;;;;;5081384;28;20074;-93
2024/03/09 08:07:44;;;;;;;26.98;11.95;;;6.10;82.70;;;;;;5076678;28;20487;-92
2024/03/09 08:10:20;;;;;;;26.45;12.40;;;6.10;82.10;;;;;;5081972;28;20116;-93
2024/03/09 08:12:47;;;;;;;27.08;12.23;;;6.20;82.00;;;;;;5064085;28;20032;-92
2024/03/09 08:15:14;;;;;;;22.58;10.48;;;6.30;81.40;;;;;;5065810;28;20020;-93
2024/03/09 08:17:40;;;;;;;24.60;11.68;;;6.30;80.90;;;;;;5063841;28;20059;-93
2024/03/09 08:20:07;;;;;;;24.05;11.88;;;6.30;80.80;;;;;;5081274;28;20020;-93
2024/03/09 08:22:40;;;;;;;26.00;13.68;;;6.40;80.40;;;;;;5080028;28;20082;-92
2024/03/09 08:25:06;;;;;;;25.50;11.75;;;6.50;79.80;;;;;;5077457;28;20050;-92
2024/03/09 08:27:39;;;;;;;23.92;11.82;;;6.50;79.90;;;;;;5081582;28;20037;-92
2024/03/09 08:30:15;;;;;;;25.33;11.93;;;6.60;79.60;;;;;;5062950;28;20059;-95
2024/03/09 08:32:44;;;;;;;28.92;12.98;;;6.70;80.10;;;;;;5059896;28;20093;-93
2024/03/09 08:35:11;;;;;;;22.10;12.38;;;6.80;79.40;;;;;;5079394;28;20051;-92
2024/03/09 08:37:41;;;;;;;23.58;12.00;;;6.80;78.60;;;;;;5059256;28;20027;-92
2024/03/09 08:40:17;;;;;;;27.17;12.15;;;6.80;78.70;;;;;;5056607;28;20029;-92
2024/03/09 08:42:44;;;;;;;21.92;11.20;;;6.90;79.40;;;;;;5057718;28;20507;-93
2024/03/09 08:45:10;;;;;;;25.25;12.88;;;7.00;79.20;;;;;;5081202;28;20471;-92
2024/03/09 08:47:36;;;;;;;24.60;11.32;;;7.10;78.00;;;;;;5064487;28;20116;-93
2024/03/09 08:50:02;;;;;;;26.33;12.00;;;7.20;78.00;;;;;;5081155;28;20032;-93
2024/03/09 08:52:28;;;;;;;23.02;12.32;;;7.30;77.40;;;;;;5062325;28;20651;-93
2024/03/09 08:54:53;;;;;;;22.77;11.25;;;7.30;76.80;;;;;;5061984;28;20112;-92
2024/03/09 08:57:19;;;;;;;23.52;11.20;;;7.40;77.10;;;;;;5098255;28;20069;-92
2024/03/09 08:59:46;;;;;;;21.20;11.73;;;7.50;77.80;;;;;;5061473;28;20120;-94
2024/03/09 09:02:12;;;;;;;22.88;11.93;;;7.60;77.30;;;;;;5061905;28;20027;-93
2024/03/09 09:04:37;;;;;;;25.52;12.68;;;7.70;76.90;;;;;;5062721;28;20025;-92
2024/03/09 09:07:06;;;;;;;23.65;12.05;;;7.90;76.10;;;;;;5077457;28;20025;-93
2024/03/09 09:09:32;;;;;;;20.20;10.45;;;8.00;75.20;;;;;;5074123;28;20077;-92
2024/03/09 09:12:11;;;;;;;28.45;12.07;;;8.10;74.90;;;;;;5111519;27;1303617;-93
2024/03/09 09:14:40;;;;;;;21.55;12.45;;;8.30;74.80;;;;;;5127935;28;20090;-93
2024/03/09 09:17:06;;;;;;;26.08;12.38;;;8.50;74.50;;;;;;5125434;28;20032;-94
2024/03/09 09:19:32;;;;;;;23.80;12.40;;;8.60;73.10;;;;;;5136525;27;20405;-94
2024/03/09 09:21:59;;;;;;;23.33;14.07;;;8.70;72.50;;;;;;5127978;27;20020;-93
2024/03/09 09:24:25;;;;;;;25.08;12.82;;;8.90;72.30;;;;;;5128790;28;20023;-93
2024/03/09 09:26:50;;;;;;;23.20;12.18;;;9.00;71.00;;;;;;5118924;28;20099;-92
2024/03/09 09:29:16;;;;;;;20.40;11.18;;;9.20;71.60;;;;;;5124946;28;20050;-93
2024/03/09 09:31:43;;;;;;;24.42;14.15;;;9.30;71.20;;;;;;5125220;28;20119;-95
2024/03/09 09:34:12;;;;;;;20.45;11.10;;;9.50;70.00;;;;;;5119800;28;20462;-94
2024/03/09 09:36:38;;;;;;;20.45;11.13;;;9.70;69.60;;;;;;5119484;28;20016;-94
2024/03/09 09:39:04;;;;;;;19.70;10.32;;;9.80;69.40;;;;;;5118575;28;20038;-92
2024/03/09 09:41:29;;;;;;;20.55;9.73;;;9.90;69.30;;;;;;5129515;28;20035;-93
2024/03/09 09:43:59;;;;;;;20.88;9.77;;;10.10;68.50;;;;;;5131798;28;20024;-94
2024/03/09 09:46:29;;;;;;;16.38;9.18;;;10.40;67.40;;;;;;5117412;28;20030;-92
2024/03/09 09:48:55;;;;;;;18.65;10.45;;;10.60;66.30;;;;;;5118553;28;20039;-93
2024/03/09 09:51:25;;;;;;;18.08;8.27;;;10.90;65.70;;;;;;5135380;28;20023;-93
2024/03/09 09:53:54;;;;;;;18.08;10.38;;;11.00;64.10;;;;;;5131645;28;20019;-93
2024/03/09 09:56:23;;;;;;;18.13;10.05;;;11.20;63.90;;;;;;5120967;27;20087;-93
2024/03/09 09:58:49;;;;;;;17.08;9.38;;;11.40;63.40;;;;;;5123527;28;20023;-94
2024/03/09 10:01:20;;;;;;;19.45;10.45;;;11.50;62.10;;;;;;5122388;28;20028;-92
2024/03/09 10:03:47;;;;;;;22.60;10.65;;;11.60;61.60;;;;;;5120011;28;20020;-93
2024/03/09 10:06:24;;;;;;;18.33;9.23;;;11.80;61.10;;;;;;5126861;28;20079;-94
2024/03/09 10:08:53;;;;;;;17.27;8.82;;;11.90;60.70;;;;;;5115001;28;20020;-93
2024/03/09 10:11:22;;;;;;;21.67;10.32;;;12.00;60.10;;;;;;5126654;28;20096;-94
2024/03/09 10:13:49;;;;;;;17.02;9.27;;;12.30;59.00;;;;;;5119382;28;20024;-94
2024/03/09 10:16:16;;;;;;;18.95;10.60;;;12.40;58.80;;;;;;5118751;28;20525;-92
2024/03/09 10:18:44;;;;;;;19.88;10.07;;;12.60;58.30;;;;;;5129348;28;20019;-92
2024/03/09 10:21:10;;;;;;;19.65;9.35;;;12.70;57.80;;;;;;5122850;28;20051;-91
2024/03/09 10:23:37;;;;;;;21.77;9.73;;;12.90;57.50;;;;;;5122398;28;20020;-93
2024/03/09 10:26:09;;;;;;;21.80;10.80;;;13.00;55.90;;;;;;5109182;28;20036;-93
2024/03/09 10:28:36;;;;;;;18.80;10.88;;;13.00;55.80;;;;;;5106467;28;20031;-93
2024/03/09 10:31:03;;;;;;;21.23;10.20;;;13.00;55.20;;;;;;5106119;28;20028;-92
2024/03/09 10:33:36;;;;;;;20.42;11.57;;;13.20;55.70;;;;;;5102368;28;20039;-91
2024/03/09 10:36:03;;;;;;;22.15;10.07;;;13.40;54.70;;;;;;5104066;28;20017;-91
2024/03/09 10:38:30;;;;;;;22.02;11.00;;;13.50;53.40;;;;;;5105816;28;20024;-92
2024/03/09 10:40:59;;;;;;;23.05;11.27;;;13.60;54.00;;;;;;5105955;28;20487;-93
2024/03/09 10:43:26;;;;;;;22.40;10.50;;;13.70;52.80;;;;;;5107453;28;20026;-93
2024/03/09 10:45:55;;;;;;;25.48;11.30;;;13.90;52.40;;;;;;5116268;28;20103;-90
2024/03/09 10:48:21;;;;;;;20.30;10.70;;;13.90;52.30;;;;;;5113336;28;20028;-93
2024/03/09 10:51:25;;;;;;;20.48;11.80;;;14.00;51.80;;;;;;5112053;28;20043;-93
2024/03/09 10:54:17;;;;;;;21.17;10.65;;;14.10;51.90;;;;;;5105513;28;20035;-92
2024/03/09 10:56:46;;;;;;;21.15;10.43;;;14.20;51.50;;;;;;5113292;28;20803;-93
2024/03/09 10:59:13;;;;;;;21.75;10.40;;;14.10;50.90;;;;;;5106973;28;20103;-92
2024/03/09 11:01:39;;;;;;;24.60;11.55;;;14.20;50.90;;;;;;5091629;28;20026;-91
2024/03/09 11:04:07;;;;;;;19.33;11.07;;;14.40;50.20;;;;;;5096692;28;20459;-92
2024/03/09 11:06:34;;;;;;;21.13;11.52;;;14.50;50.20;;;;;;5110675;28;20024;-90
2024/03/09 11:09:03;;;;;;;18.40;11.02;;;14.50;50.40;;;;;;5102752;28;20037;-93
2024/03/09 11:11:31;;;;;;;20.30;11.10;;;14.60;50.70;;;;;;5108567;28;20024;-93
2024/03/09 11:14:02;;;;;;;20.27;10.63;;;14.80;50.60;;;;;;5105917;28;20023;-91
2024/03/09 11:16:29;;;;;;;22.75;11.80;;;15.00;49.20;;;;;;5103380;28;20059;-92
2024/03/09 11:18:55;;;;;;;20.88;10.68;;;15.10;49.20;;;;;;5109054;28;20107;-94
2024/03/09 11:21:34;;;;;;;20.42;10.77;;;15.40;48.30;;;;;;5099841;28;20050;-94
2024/03/09 11:24:08;;;;;;;18.27;10.30;;;15.30;48.60;;;;;;5110251;28;20576;-92
2024/03/09 11:26:41;;;;;;;20.83;11.18;;;15.50;48.00;;;;;;5124642;28;20058;-92
2024/03/09 11:29:10;;;;;;;20.67;11.20;;;15.80;46.40;;;;;;5115705;28;20099;-93
2024/03/09 11:31:40;;;;;;;20.33;9.30;;;15.90;46.70;;;;;;5110626;28;20024;-93
2024/03/09 11:34:08;;;;;;;20.50;10.50;;;16.00;45.90;;;;;;5101364;28;20021;-92
2024/03/09 11:36:50;;;;;;;20.35;10.30;;;16.20;46.30;;;;;;5112221;28;20027;-91
2024/03/09 11:39:19;;;;;;;18.80;11.07;;;16.20;46.00;;;;;;5104510;28;20096;-93
2024/03/09 11:41:49;;;;;;;18.50;10.18;;;16.30;44.80;;;;;;5123340;28;20019;-93
2024/03/09 11:44:37;;;;;;;18.55;9.98;;;16.50;45.00;;;;;;5112452;28;20051;-92
2024/03/09 11:47:06;;;;;;;21.88;9.82;;;16.60;45.50;;;;;;5104316;28;20024;-91
2024/03/09 11:49:37;;;;;;;19.75;10.43;;;16.60;44.60;;;;;;5122621;28;20046;-93
2024/03/09 11:52:09;;;;;;;18.33;10.18;;;16.70;44.20;;;;;;5112284;28;20020;-93
2024/03/09 11:54:36;;;;;;;20.17;10.40;;;16.90;43.80;;;;;;5111063;28;20055;-92
2024/03/09 11:57:01;;;;;;;17.98;10.00;;;17.10;43.50;;;;;;5108801;28;20024;-93
2024/03/09 11:59:27;;;;;;;19.33;10.52;;;17.30;42.70;;;;;;5107989;28;20051;-94
2024/03/09 12:02:02;;;;;;;19.00;10.07;;;17.20;42.40;;;;;;5115796;28;20065;-93
2024/03/09 12:04:32;;;;;;;20.58;10.43;;;17.00;43.10;;;;;;5106306;28;20036;-93
2024/03/09 12:06:59;;;;;;;21.08;11.50;;;17.20;42.60;;;;;;5122419;28;20058;-93
2024/03/09 12:09:24;;;;;;;17.48;10.13;;;17.40;42.00;;;;;;5122331;28;20035;-92
2024/03/09 12:11:50;;;;;;;16.05;9.55;;;17.90;41.20;;;;;;5122379;28;20028;-92
2024/03/09 12:14:16;;;;;;;15.25;9.27;;;18.10;40.80;;;;;;5112746;28;20025;-92
2024/03/09 12:16:43;;;;;;;18.25;9.90;;;18.10;40.60;;;;;;5110115;28;20024;-93
2024/03/09 12:19:12;;;;;;;16.35;9.63;;;17.90;40.90;;;;;;5101024;28;20024;-94
2024/03/09 12:21:38;;;;;;;15.93;9.75;;;17.70;41.40;;;;;;5105308;28;20020;-92
2024/03/09 12:24:07;;;;;;;18.85;9.32;;;17.90;41.00;;;;;;5107533;28;20043;-92
2024/03/09 12:26:33;;;;;;;16.67;8.82;;;17.80;40.90;;;;;;5117383;28;20032;-94
2024/03/09 12:29:07;;;;;;;14.73;8.13;;;17.90;40.40;;;;;;5112898;28;20016;-94
2024/03/09 12:31:52;;;;;;;21.38;8.27;;;17.70;40.40;;;;;;5112969;28;20319;-92
2024/03/09 12:34:18;;;;;;;15.32;8.45;;;17.80;40.10;;;;;;5106509;28;20547;-91
2024/03/09 12:36:51;;;;;;;17.02;8.68;;;17.80;40.10;;;;;;5101132;28;20020;-91
2024/03/09 12:39:17;;;;;;;16.13;7.70;;;17.90;39.80;;;;;;5101800;28;20060;-93